Time;durP1;ratioP1;P1;durP2;ratioP2;P2;SDS_P1;SDS_P2;PMS_P1;PMS_P2;Temp;Humidity;BMP_temperature;BMP_pressure;BME280_temperature;BME280_humidity;BME280_pressure;Samples;Min_cycle;Max_cycle;Signal;HPM_P1;HPM_P2
2024/04/04 00:09:58;;;;;;;;;;;9.40;99.90;;;;;;21172498;28;19938;-78
2024/04/04 00:19:59;;;;;;;;;;;9.50;99.90;;;;;;21169577;28;20038;-79
2024/04/04 00:29:59;;;;;;;;;;;9.50;99.90;;;;;;21173354;28;19912;-77
2024/04/04 00:40:00;;;;;;;;;;;9.50;99.90;;;;;;21169533;28;19916;-78
2024/04/04 00:50:01;;;;;;;;;;;9.50;99.90;;;;;;21191552;28;19920;-78
2024/04/04 01:00:03;;;;;;;;;;;9.50;99.90;;;;;;21178893;28;19916;-77
2024/04/04 01:10:07;;;;;;;;;;;9.60;99.90;;;;;;21180703;28;19915;-79
2024/04/04 01:20:08;;;;;;;;;;;9.50;99.90;;;;;;21177583;28;19994;-79
2024/04/04 01:30:09;;;;;;;;;;;9.60;99.90;;;;;;21178783;28;20398;-79
2024/04/04 01:40:10;;;;;;;;;;;9.70;99.90;;;;;;21174668;28;19915;-79
2024/04/04 01:50:10;;;;;;;;;;;9.60;99.90;;;;;;21179284;28;20391;-77
2024/04/04 02:00:11;;;;;;;;;;;9.70;99.90;;;;;;21172662;28;19919;-78
2024/04/04 02:10:15;;;;;;;;;;;9.60;99.90;;;;;;21187795;28;20329;-79
2024/04/04 02:20:16;;;;;;;;;;;9.60;99.90;;;;;;21175524;28;19968;-79
2024/04/04 02:30:17;;;;;;;;;;;9.60;99.90;;;;;;21224616;28;19920;-74
2024/04/04 02:40:18;;;;;;;;;;;10.00;99.90;;;;;;21236511;28;20064;-74
2024/04/04 02:50:18;;;;;;;;;;;9.90;99.90;;;;;;21186544;28;19911;-79
2024/04/04 03:00:20;;;;;;;;;;;9.80;99.90;;;;;;21172244;28;19920;-79
2024/04/04 03:10:20;;;;;;;;;;;9.70;99.90;;;;;;21181343;28;19919;-79
2024/04/04 03:20:21;;;;;;;;;;;9.60;99.90;;;;;;21171971;28;19915;-78
2024/04/04 03:30:22;;;;;;;;;;;9.70;99.90;;;;;;21173903;28;19923;-79
2024/04/04 03:40:22;;;;;;;;;;;9.40;99.90;;;;;;21172671;28;19915;-79
2024/04/04 03:50:23;;;;;;;;;;;9.40;99.90;;;;;;21179849;28;19959;-78
2024/04/04 04:00:25;;;;;;;;;;;9.30;99.90;;;;;;21178035;28;19919;-78
2024/04/04 04:10:30;;;;;;;;;;;9.20;99.90;;;;;;21176937;28;20329;-78
2024/04/04 04:30:54;;;;;;;;;;;9.20;99.90;;;;;;21185429;28;19912;-79
2024/04/04 04:41:02;;;;;;;;;;;9.20;99.90;;;;;;21161741;28;19934;-79
2024/04/04 04:51:03;;;;;;;;;;;8.80;99.90;;;;;;21184653;28;19934;-79
2024/04/04 05:01:03;;;;;;;;;;;8.80;99.90;;;;;;21182744;28;19920;-79
2024/04/04 05:11:05;;;;;;;;;;;8.70;99.90;;;;;;21185758;28;19916;-78
2024/04/04 05:21:06;;;;;;;;;;;8.50;99.90;;;;;;21173943;28;19916;-77
2024/04/04 05:31:07;;;;;;;;;;;8.70;99.90;;;;;;21171916;28;19912;-77
2024/04/04 05:41:08;;;;;;;;;;;8.90;99.90;;;;;;21165423;28;19924;-78
2024/04/04 05:51:09;;;;;;;;;;;9.00;99.90;;;;;;21163801;28;19981;-77
2024/04/04 06:01:10;;;;;;;;;;;9.10;99.90;;;;;;21178595;28;19969;-78
2024/04/04 06:11:11;;;;;;;;;;;9.10;99.90;;;;;;21166624;28;20382;-79
2024/04/04 06:21:11;;;;;;;;;;;9.20;99.90;;;;;;21172589;28;19920;-77
2024/04/04 06:31:12;;;;;;;;;;;9.50;99.90;;;;;;21173859;28;19915;-78
2024/04/04 06:41:13;;;;;;;;;;;9.90;99.90;;;;;;21172621;28;19947;-77
2024/04/04 06:51:13;;;;;;;;;;;10.40;99.90;;;;;;21169243;28;19912;-76
2024/04/04 07:01:14;;;;;;;;;;;11.10;99.90;;;;;;21191381;28;19916;-78
2024/04/04 07:11:15;;;;;;;;;;;10.90;99.90;;;;;;21172383;28;20379;-78
2024/04/04 07:21:15;;;;;;;;;;;11.90;99.90;;;;;;21164011;28;19945;-79
2024/04/04 07:31:16;;;;;;;;;;;12.90;99.90;;;;;;21183650;28;20436;-79
2024/04/04 07:41:17;;;;;;;;;;;12.60;99.90;;;;;;21178355;28;19923;-78
2024/04/04 07:51:19;;;;;;;;;;;12.40;99.90;;;;;;21179742;28;19935;-78
2024/04/04 08:01:20;;;;;;;;;;;12.30;99.90;;;;;;21190777;28;19916;-79
2024/04/04 08:11:21;;;;;;;;;;;12.40;99.90;;;;;;21189837;28;19969;-78
2024/04/04 08:21:22;;;;;;;;;;;12.70;99.90;;;;;;21196326;28;19955;-78
2024/04/04 08:31:22;;;;;;;;;;;13.30;99.90;;;;;;21198845;28;19911;-79
2024/04/04 08:41:23;;;;;;;;;;;13.70;99.90;;;;;;21207212;28;19923;-79
2024/04/04 08:51:24;;;;;;;;;;;13.70;99.90;;;;;;21200290;28;19923;-78
2024/04/04 09:01:25;;;;;;;;;;;13.60;99.90;;;;;;21201884;28;19998;-78
2024/04/04 09:11:27;;;;;;;;;;;13.80;99.90;;;;;;21195247;28;19912;-78
2024/04/04 09:21:27;;;;;;;;;;;14.00;99.90;;;;;;21191101;28;19916;-78
2024/04/04 09:31:30;;;;;;;;;;;14.30;99.90;;;;;;21197982;28;20585;-78
2024/04/04 09:41:30;;;;;;;;;;;15.30;99.90;;;;;;21209774;28;20274;-78
2024/04/04 09:51:34;;;;;;;;;;;15.10;99.90;;;;;;21193743;28;19911;-79
2024/04/04 10:01:37;;;;;;;;;;;15.80;99.90;;;;;;21239303;28;19919;-75
2024/04/04 10:11:38;;;;;;;;;;;16.40;99.90;;;;;;21245980;28;19939;-77
2024/04/04 10:21:39;;;;;;;;;;;17.00;99.90;;;;;;21192817;28;20278;-79
2024/04/04 10:31:40;;;;;;;;;;;18.00;99.90;;;;;;21188109;28;20495;-79
2024/04/04 10:41:41;;;;;;;;;;;17.10;99.90;;;;;;21184637;28;19959;-77
2024/04/04 10:51:51;;;;;;;;;;;16.80;99.90;;;;;;21184483;28;20302;-79
2024/04/04 11:01:52;;;;;;;;;;;16.70;99.90;;;;;;21182475;28;20002;-79
2024/04/04 11:11:54;;;;;;;;;;;16.70;99.90;;;;;;21166306;28;19984;-77
2024/04/04 11:21:55;;;;;;;;;;;16.80;99.90;;;;;;21158541;28;19959;-77
2024/04/04 11:31:55;;;;;;;;;;;17.30;99.90;;;;;;21158652;28;20433;-77
2024/04/04 11:41:56;;;;;;;;;;;17.30;99.90;;;;;;21163175;28;20409;-77
2024/04/04 11:51:57;;;;;;;;;;;17.30;99.90;;;;;;21161398;28;20416;-76
2024/04/04 12:01:57;;;;;;;;;;;17.10;99.90;;;;;;21168579;28;19923;-78
2024/04/04 12:11:58;;;;;;;;;;;16.70;99.90;;;;;;21172954;28;19911;-76
2024/04/04 12:21:58;;;;;;;;;;;15.80;99.90;;;;;;21165038;28;20041;-77
2024/04/04 12:31:59;;;;;;;;;;;14.80;99.90;;;;;;21166591;28;20255;-79
2024/04/04 12:42:00;;;;;;;;;;;14.10;99.90;;;;;;21176505;28;19961;-78
2024/04/04 12:52:01;;;;;;;;;;;13.50;99.90;;;;;;21188936;28;19912;-79
2024/04/04 13:02:02;;;;;;;;;;;13.30;99.90;;;;;;21185511;28;19916;-79
2024/04/04 13:12:03;;;;;;;;;;;13.50;99.90;;;;;;21187118;28;20387;-77
2024/04/04 13:22:05;;;;;;;;;;;13.10;99.90;;;;;;21173116;28;19920;-77
2024/04/04 13:32:06;;;;;;;;;;;13.40;99.90;;;;;;21184767;28;20406;-79
2024/04/04 13:42:07;;;;;;;;;;;13.50;99.90;;;;;;21185174;28;20022;-79
2024/04/04 13:52:08;;;;;;;;;;;13.10;99.90;;;;;;21183190;28;19915;-80
2024/04/04 14:02:09;;;;;;;;;;;12.60;99.90;;;;;;21203272;28;19923;-78
2024/04/04 14:12:10;;;;;;;;;;;12.40;99.90;;;;;;21179227;28;19911;-78
2024/04/04 14:22:10;;;;;;;;;;;12.40;99.90;;;;;;21181054;28;20472;-75
2024/04/04 14:32:11;;;;;;;;;;;12.70;99.90;;;;;;21185749;28;19912;-79
2024/04/04 14:42:16;;;;;;;;;;;12.90;99.90;;;;;;21177415;28;19920;-75
2024/04/04 14:52:17;;;;;;;;;;;13.00;99.90;;;;;;21174667;28;19915;-77
2024/04/04 15:02:18;;;;;;;;;;;13.20;99.90;;;;;;21151871;28;20006;-78
2024/04/04 15:12:18;;;;;;;;;;;13.50;99.90;;;;;;21174907;28;20431;-79
2024/04/04 15:22:19;;;;;;;;;;;14.00;99.90;;;;;;21162938;28;19957;-79
2024/04/04 15:32:20;;;;;;;;;;;14.10;99.90;;;;;;21174293;28;20010;-78
2024/04/04 15:42:20;;;;;;;;;;;14.10;99.90;;;;;;21172447;28;20447;-78
2024/04/04 15:52:21;;;;;;;;;;;14.20;99.90;;;;;;21173659;28;20004;-76
2024/04/04 16:02:27;;;;;;;;;;;14.30;99.90;;;;;;21173132;28;20463;-78
2024/04/04 16:12:27;;;;;;;;;;;14.10;99.90;;;;;;21174155;28;19912;-79
2024/04/04 16:22:28;;;;;;;;;;;14.20;99.90;;;;;;21180350;28;20391;-79
2024/04/04 16:32:28;;;;;;;;;;;14.10;99.90;;;;;;21185439;28;19962;-77
2024/04/04 16:42:29;;;;;;;;;;;13.90;99.90;;;;;;21165736;28;19920;-77
2024/04/04 16:52:30;;;;;;;;;;;13.40;99.90;;;;;;21152453;28;19912;-77
2024/04/04 17:02:31;;;;;;;;;;;13.10;99.90;;;;;;21207343;28;19924;-76
2024/04/04 17:12:34;;;;;;;;;;;13.20;99.90;;;;;;21250540;28;19915;-75
2024/04/04 17:22:35;;;;;;;;;;;13.20;99.90;;;;;;21210945;28;19923;-79
2024/04/04 17:32:36;;;;;;;;;;;13.10;99.90;;;;;;21178802;28;19912;-80
2024/04/04 17:42:39;;;;;;;;;;;13.10;99.90;;;;;;21164343;28;19954;-78
2024/04/04 17:52:39;;;;;;;;;;;12.90;99.90;;;;;;21170707;28;20031;-79
2024/04/04 18:02:41;;;;;;;;;;;12.70;99.90;;;;;;21174598;28;19970;-76
2024/04/04 18:12:42;;;;;;;;;;;12.30;99.90;;;;;;21167369;28;19963;-79
2024/04/04 18:22:42;;;;;;;;;;;12.40;99.90;;;;;;21176986;28;19922;-78
2024/04/04 18:32:43;;;;;;;;;;;12.40;99.90;;;;;;21173556;28;19912;-79
2024/04/04 18:42:44;;;;;;;;;;;12.80;99.90;;;;;;21176959;28;19916;-79
2024/04/04 18:52:44;;;;;;;;;;;13.00;99.90;;;;;;21178572;28;19934;-77
2024/04/04 19:02:46;;;;;;;;;;;12.50;99.90;;;;;;21163899;28;19916;-77
2024/04/04 19:12:47;;;;;;;;;;;11.90;99.90;;;;;;21172542;28;19920;-78
2024/04/04 19:22:47;;;;;;;;;;;11.60;99.90;;;;;;21153550;28;19953;-79
2024/04/04 19:32:48;;;;;;;;;;;11.50;99.90;;;;;;21171525;28;19939;-78
2024/04/04 19:42:48;;;;;;;;;;;11.60;99.90;;;;;;21172404;28;19923;-77
2024/04/04 19:52:49;;;;;;;;;;;11.90;99.90;;;;;;21163700;28;19919;-78
2024/04/04 20:02:50;;;;;;;;;;;12.00;99.90;;;;;;21180403;28;20398;-76
2024/04/04 20:12:51;;;;;;;;;;;11.80;99.90;;;;;;21148822;28;19924;-78
2024/04/04 20:22:52;;;;;;;;;;;11.50;99.90;;;;;;21127750;28;19931;-77
2024/04/04 20:32:53;;;;;;;;;;;11.40;99.90;;;;;;21112768;28;19944;-77
2024/04/04 20:42:54;;;;;;;;;;;11.40;99.90;;;;;;21106524;28;19940;-76
2024/04/04 20:52:54;;;;;;;;;;;11.20;99.90;;;;;;21107712;28;20455;-77
2024/04/04 21:02:55;;;;;;;;;;;11.10;99.90;;;;;;21106906;28;19923;-78
2024/04/04 21:12:57;;;;;;;;;;;10.80;99.90;;;;;;21110541;28;19966;-77
2024/04/04 21:22:58;;;;;;;;;;;10.60;99.90;;;;;;21111380;28;20042;-77
2024/04/04 21:32:59;;;;;;;;;;;10.60;99.90;;;;;;21113948;28;19920;-77
2024/04/04 21:43:00;;;;;;;;;;;10.70;99.90;;;;;;21105276;28;20336;-77
2024/04/04 21:53:00;;;;;;;;;;;10.60;99.90;;;;;;21085637;28;20366;-77
2024/04/04 22:03:01;;;;;;;;;;;10.40;99.90;;;;;;21148167;28;19916;-77
2024/04/04 22:13:02;;;;;;;;;;;10.20;99.90;;;;;;21169028;28;19951;-79
2024/04/04 22:23:03;;;;;;;;;;;10.10;99.90;;;;;;21169301;28;19930;-78
2024/04/04 22:33:04;;;;;;;;;;;10.00;99.90;;;;;;21177712;28;19947;-78
2024/04/04 22:43:04;;;;;;;;;;;9.60;99.90;;;;;;21176083;28;19923;-78
2024/04/04 22:53:06;;;;;;;;;;;9.80;99.90;;;;;;21175314;28;19911;-78
2024/04/04 23:03:06;;;;;;;;;;;10.10;99.90;;;;;;21179273;28;19923;-78
2024/04/04 23:13:07;;;;;;;;;;;10.20;99.90;;;;;;21169528;28;19927;-78
2024/04/04 23:23:07;;;;;;;;;;;10.10;99.90;;;;;;21171092;28;19919;-78
2024/04/04 23:33:08;;;;;;;;;;;10.20;99.90;;;;;;21168138;28;19912;-78
2024/04/04 23:43:09;;;;;;;;;;;10.10;99.90;;;;;;21167602;28;20402;-78
2024/04/04 23:53:09;;;;;;;;;;;9.70;99.90;;;;;;21164274;28;19922;-79
